Terminal Aerodrome Forecast
Issued by NWS

Home | Current Version | Previous Version | Text Only | Print | Product List | Glossary On
Versions: 1 2 3 4 5 6 7 8 9 10 11 12 13 14 15 16 17 18 19 20 21 22
000
FTUS42 KJAX 231250 AAA
TAFCRG
TAF AMD
KCRG 231250Z 2313/2412 04010KT P6SM VCSH SCT020 BKN070
     FM231500 05016G26KT P6SM VCSH SCT020 BKN035 OVC100
     FM240000 04010KT P6SM SCT020 BKN040=

USA.gov is the U.S. government's official web portal to all federal, state and local government web resources and services.